Time;durP1;ratioP1;P1;durP2;ratioP2;P2;SDS_P1;SDS_P2;PMS_P1;PMS_P2;Temp;Humidity;BMP_temperature;BMP_pressure;BME280_temperature;BME280_humidity;BME280_pressure;Samples;Min_cycle;Max_cycle;Signal;HPM_P1;HPM_P2
2022/09/12 00:01:59;;;;;;;27.90;17.85;;;;;;;;;;4876541;29;20054;-72
2022/09/12 00:04:26;;;;;;;23.70;17.63;;;;;;;;;;4859502;29;20522;-72
2022/09/12 00:06:52;;;;;;;24.60;17.52;;;;;;;;;;4866320;29;20478;-72
2022/09/12 00:09:19;;;;;;;28.17;18.48;;;;;;;;;;4847213;29;20115;-72
2022/09/12 00:11:45;;;;;;;25.48;17.73;;;15.70;99.90;;;;;;4859756;29;20494;-72
2022/09/12 00:14:14;;;;;;;24.45;17.23;;;15.70;99.90;;;;;;4874655;29;20557;-72
2022/09/12 00:16:41;;;;;;;21.77;17.02;;;;;;;;;;4870159;29;20060;-72
2022/09/12 00:19:08;;;;;;;22.80;17.35;;;15.70;99.90;;;;;;4845819;29;20034;-72
2022/09/12 00:21:35;;;;;;;23.48;17.35;;;15.80;99.90;;;;;;4862795;29;20060;-72
2022/09/12 00:24:02;;;;;;;23.50;17.02;;;15.70;99.90;;;;;;4863481;29;20041;-72
2022/09/12 00:26:28;;;;;;;25.00;17.83;;;;;;;;;;4878833;29;20128;-72
2022/09/12 00:28:54;;;;;;;26.08;17.80;;;;;;;;;;4864143;29;20589;-72
2022/09/12 00:31:23;;;;;;;21.95;17.05;;;15.60;99.90;;;;;;4862996;29;20041;-72
2022/09/12 00:33:49;;;;;;;27.30;18.38;;;;;;;;;;4859398;29;20116;-72
2022/09/12 00:36:18;;;;;;;24.08;18.70;;;15.70;99.90;;;;;;4862815;29;20097;-72
2022/09/12 00:38:45;;;;;;;25.15;17.98;;;;;;;;;;4879662;29;20075;-72
2022/09/12 00:41:19;;;;;;;26.23;18.02;;;16.40;99.90;;;;;;4869906;29;20049;-72
2022/09/12 00:43:48;;;;;;;26.70;18.42;;;15.40;99.90;;;;;;4862175;29;20137;-72
2022/09/12 00:46:25;;;;;;;23.63;17.17;;;15.10;99.90;;;;;;4891648;29;20057;-72
2022/09/12 00:48:58;;;;;;;21.13;16.65;;;16.40;99.90;;;;;;4862633;29;20052;-72
2022/09/12 00:51:25;;;;;;;25.05;17.25;;;15.40;99.90;;;;;;4877263;29;20041;-72
2022/09/12 00:53:53;;;;;;;22.30;16.73;;;15.30;99.90;;;;;;4850555;29;20072;-72
2022/09/12 00:56:22;;;;;;;21.05;16.92;;;15.20;99.90;;;;;;4868690;29;20053;-72
2022/09/12 00:59:01;;;;;;;22.50;17.48;;;15.10;99.90;;;;;;4862652;29;20053;-72
2022/09/12 01:01:27;;;;;;;21.33;16.23;;;;;;;;;;4865834;29;20071;-72
2022/09/12 01:03:53;;;;;;;20.25;15.65;;;;;;;;;;4865448;29;20052;-72
2022/09/12 01:06:31;;;;;;;20.48;15.65;;;15.80;99.90;;;;;;4869464;29;20123;-72
2022/09/12 01:08:58;;;;;;;18.95;14.80;;;;;;;;;;4862821;29;20090;-72
2022/09/12 01:11:24;;;;;;;20.00;14.43;;;;;;;;;;4862347;29;20037;-72
2022/09/12 01:13:50;;;;;;;19.17;14.63;;;;;;;;;;4862532;29;20518;-72
2022/09/12 01:16:17;;;;;;;18.38;14.93;;;;;;;;;;4867268;29;20052;-72
2022/09/12 01:18:43;;;;;;;18.25;14.65;;;;;;;;;;4866043;29;20056;-72
2022/09/12 01:21:29;;;;;;;21.27;15.13;;;15.00;99.90;;;;;;4865800;29;20049;-72
2022/09/12 01:24:23;;;;;;;20.80;15.43;;;15.00;99.90;;;;;;4878412;29;20052;-72
2022/09/12 01:27:02;;;;;;;20.40;15.80;;;;;;;;;;4872407;29;20565;-72
2022/09/12 01:29:49;;;;;;;18.67;13.95;;;15.00;99.90;;;;;;4880388;29;20049;-72
2022/09/12 01:32:42;;;;;;;19.23;15.10;;;14.90;99.90;;;;;;4882698;29;20044;-72
2022/09/12 01:35:31;;;;;;;18.98;14.10;;;14.70;99.90;;;;;;4868521;29;20536;-72
2022/09/12 01:38:12;;;;;;;21.23;15.02;;;;;;;;;;4873826;29;20084;-72
2022/09/12 01:40:48;;;;;;;19.77;15.52;;;14.70;99.90;;;;;;4880119;29;20056;-72
2022/09/12 01:43:19;;;;;;;20.23;14.88;;;15.00;99.90;;;;;;4865614;29;20148;-72
2022/09/12 01:45:46;;;;;;;19.57;14.67;;;15.20;99.90;;;;;;4866395;29;20049;-72
2022/09/12 01:48:20;;;;;;;24.60;15.02;;;15.40;99.90;;;;;;4866521;29;20096;-72
2022/09/12 01:50:59;;;;;;;19.08;14.52;;;15.10;99.90;;;;;;4873895;29;20052;-72
2022/09/12 01:53:31;;;;;;;19.70;15.35;;;14.90;99.90;;;;;;4879981;29;20044;-72
2022/09/12 01:56:31;;;;;;;20.55;16.75;;;15.60;99.90;;;;;;4872657;29;20048;-72
2022/09/12 01:59:09;;;;;;;20.95;15.43;;;;;;;;;;4872731;29;20095;-72
2022/09/12 02:01:44;;;;;;;22.13;16.10;;;14.70;99.90;;;;;;4876835;29;20104;-72
2022/09/12 02:04:26;;;;;;;23.33;17.05;;;14.90;99.90;;;;;;4876152;29;20045;-72
2022/09/12 02:06:55;;;;;;;22.13;15.65;;;;;;;;;;4886751;29;20067;-72
2022/09/12 02:09:25;;;;;;;20.90;15.77;;;15.00;99.90;;;;;;4865040;29;20049;-72
2022/09/12 02:11:55;;;;;;;25.30;16.88;;;14.90;99.90;;;;;;4874364;29;20045;-72
2022/09/12 02:14:24;;;;;;;24.60;16.35;;;;;;;;;;4870718;29;20132;-72
2022/09/12 02:17:12;;;;;;;24.00;15.82;;;14.40;99.90;;;;;;4868724;29;20594;-72
2022/09/12 02:19:51;;;;;;;24.83;16.05;;;14.90;99.90;;;;;;4883332;29;20101;-72
2022/09/12 02:22:20;;;;;;;25.60;16.05;;;14.90;99.90;;;;;;4877904;29;20475;-73
2022/09/12 02:24:49;;;;;;;23.33;16.73;;;14.90;99.90;;;;;;4867159;29;20121;-72
2022/09/12 02:27:27;;;;;;;22.98;15.40;;;13.60;99.90;;;;;;4871405;29;20510;-72
2022/09/12 02:29:53;;;;;;;21.08;15.27;;;;;;;;;;4879404;29;20052;-72
2022/09/12 02:32:41;;;;;;;19.23;14.75;;;14.70;99.90;;;;;;4875655;29;20048;-72
2022/09/12 02:35:21;;;;;;;20.48;13.98;;;14.80;99.90;;;;;;4872655;29;20159;-72
2022/09/12 02:38:02;;;;;;;21.20;15.30;;;;;;;;;;4879839;29;20520;-72
2022/09/12 02:40:29;;;;;;;19.65;15.45;;;14.60;99.90;;;;;;4864980;29;20390;-72
2022/09/12 02:42:56;;;;;;;19.40;14.90;;;;;;;;;;4865509;29;20057;-72
2022/09/12 02:45:22;;;;;;;18.83;14.70;;;;;;;;;;4868325;29;20053;-72
2022/09/12 02:47:57;;;;;;;22.77;15.48;;;14.90;99.90;;;;;;4863734;29;20211;-72
2022/09/12 02:50:23;;;;;;;22.70;16.00;;;;;;;;;;4863566;29;20413;-72
2022/09/12 02:52:52;;;;;;;20.13;15.02;;;14.50;99.90;;;;;;4872582;29;20058;-72
2022/09/12 02:55:18;;;;;;;23.73;15.30;;;;;;;;;;4873909;29;20060;-72
2022/09/12 02:57:44;;;;;;;28.73;16.45;;;;;;;;;;4866453;29;20044;-72
2022/09/12 03:00:11;;;;;;;22.60;15.73;;;;;;;;;;4850440;29;20062;-72
2022/09/12 03:02:56;;;;;;;21.50;14.57;;;;;;;;;;4879785;29;20060;-72
2022/09/12 03:05:31;;;;;;;25.67;16.08;;;14.70;99.90;;;;;;4866225;29;20075;-72
2022/09/12 03:08:16;;;;;;;24.88;16.73;;;15.90;99.90;;;;;;4873106;29;20190;-72
2022/09/12 03:10:54;;;;;;;24.15;16.40;;;14.80;99.90;;;;;;4865075;29;20084;-72
2022/09/12 03:13:35;;;;;;;23.65;15.55;;;14.70;99.90;;;;;;4877249;29;20048;-72
2022/09/12 03:16:01;;;;;;;22.65;15.18;;;;;;;;;;4876333;29;20057;-72
2022/09/12 03:18:59;;;;;;;21.83;15.30;;;13.60;99.90;;;;;;4866990;29;20056;-72
2022/09/12 03:22:00;;;;;;;22.02;14.88;;;14.50;99.90;;;;;;4866624;29;20139;-72
2022/09/12 03:24:47;;;;;;;20.95;14.93;;;;;;;;;;4872905;29;20053;-72
2022/09/12 03:27:27;;;;;;;21.67;14.68;;;14.70;99.90;;;;;;4879737;29;20045;-72
2022/09/12 03:29:55;;;;;;;24.23;16.48;;;14.80;99.90;;;;;;4868337;29;20048;-72
2022/09/12 03:32:49;;;;;;;22.48;15.48;;;14.50;99.90;;;;;;4870151;29;20045;-72
2022/09/12 03:35:17;;;;;;;25.70;17.60;;;14.40;99.90;;;;;;4872338;29;20064;-72
2022/09/12 03:37:43;;;;;;;28.20;18.45;;;;;;;;;;4870981;29;20048;-72
2022/09/12 03:40:10;;;;;;;30.88;19.05;;;;;;;;;;4874345;29;20057;-72
2022/09/12 03:42:37;;;;;;;30.77;19.70;;;14.60;99.90;;;;;;4873307;29;20458;-72
2022/09/12 03:45:04;;;;;;;30.23;19.73;;;14.80;99.90;;;;;;4877362;29;20510;-72
2022/09/12 03:47:30;;;;;;;32.90;20.67;;;13.50;99.90;;;;;;4865289;29;20609;-72
2022/09/12 03:49:56;;;;;;;32.10;20.65;;;;;;;;;;4876018;29;20119;-72
2022/09/12 03:52:22;;;;;;;32.83;20.15;;;;;;;;;;4873356;29;20105;-72
2022/09/12 03:54:48;;;;;;;36.15;21.92;;;;;;;;;;4863385;29;20136;-71
2022/09/12 03:57:15;;;;;;;33.38;19.95;;;;;;;;;;4872079;29;20052;-72
2022/09/12 03:59:41;;;;;;;31.95;20.88;;;;;;;;;;4876803;29;20048;-72
2022/09/12 04:02:08;;;;;;;34.05;20.73;;;;;;;;;;4872968;29;20048;-72
2022/09/12 04:04:34;;;;;;;34.28;21.38;;;;;;;;;;4863771;29;20065;-72
2022/09/12 04:07:00;;;;;;;32.78;21.92;;;;;;;;;;4865579;29;20076;-72
2022/09/12 04:09:26;;;;;;;36.22;22.50;;;;;;;;;;4863374;29;20060;-71
2022/09/12 04:11:52;;;;;;;40.42;24.20;;;;;;;;;;4869510;29;20065;-71
2022/09/12 04:14:19;;;;;;;40.72;23.98;;;;;;;;;;4874499;29;20044;-72
2022/09/12 04:16:45;;;;;;;43.85;24.95;;;;;;;;;;4870131;29;20068;-71
2022/09/12 04:19:11;;;;;;;36.05;22.88;;;14.60;99.90;;;;;;4867991;29;20400;-71
2022/09/12 04:21:38;;;;;;;39.83;24.05;;;;;;;;;;4864033;29;20060;-72
2022/09/12 04:24:04;;;;;;;42.65;25.08;;;;;;;;;;4871036;29;20371;-72
2022/09/12 04:26:30;;;;;;;40.92;24.83;;;;;;;;;;4872017;29;20041;-72
2022/09/12 04:28:56;;;;;;;39.53;23.73;;;;;;;;;;4869732;29;20053;-72
2022/09/12 04:31:23;;;;;;;45.97;26.10;;;;;;;;;;4870657;29;20131;-73
2022/09/12 04:34:00;;;;;;;44.35;27.00;;;14.90;99.90;;;;;;4877591;29;20037;-72
2022/09/12 04:36:28;;;;;;;45.97;26.13;;;14.80;99.90;;;;;;4864736;29;20084;-72
2022/09/12 04:38:54;;;;;;;43.97;26.83;;;13.90;99.90;;;;;;4870196;29;20048;-72
2022/09/12 04:41:22;;;;;;;44.42;26.25;;;14.90;99.90;;;;;;4867582;29;20140;-72
2022/09/12 04:43:52;;;;;;;45.30;26.63;;;14.80;99.90;;;;;;4860395;29;20112;-72
2022/09/12 04:46:19;;;;;;;42.80;26.42;;;;;;;;;;4861804;29;20056;-72
2022/09/12 04:48:45;;;;;;;44.55;25.50;;;;;;;;;;4867460;29;20053;-72
2022/09/12 04:51:20;;;;;;;45.55;27.13;;;14.20;99.90;;;;;;4868160;29;20045;-72
2022/09/12 04:53:50;;;;;;;43.35;25.85;;;;;;;;;;4871105;29;20041;-72
2022/09/12 04:56:20;;;;;;;43.17;26.52;;;15.10;99.90;;;;;;4867067;29;20462;-72
2022/09/12 04:58:46;;;;;;;48.47;27.90;;;;;;;;;;4868549;29;20520;-72
2022/09/12 05:01:20;;;;;;;41.42;26.13;;;14.80;99.90;;;;;;4868611;29;20413;-72
2022/09/12 05:03:47;;;;;;;52.13;27.48;;;14.90;99.90;;;;;;4868745;29;20044;-72
2022/09/12 05:06:15;;;;;;;50.25;27.42;;;15.00;99.90;;;;;;4868656;29;20056;-72
2022/09/12 05:08:42;;;;;;;45.85;26.83;;;;;;;;;;4878425;29;20060;-72
2022/09/12 05:11:13;;;;;;;46.15;28.23;;;14.90;99.90;;;;;;4870284;29;20461;-72
2022/09/12 05:13:39;;;;;;;45.20;26.17;;;;;;;;;;4867725;29;20490;-72
2022/09/12 05:16:07;;;;;;;44.28;27.08;;;15.10;99.90;;;;;;4862941;29;20040;-72
2022/09/12 05:18:35;;;;;;;44.00;27.52;;;15.10;99.90;;;;;;4874972;29;20057;-72
2022/09/12 05:21:02;;;;;;;47.08;26.23;;;;;;;;;;4868850;29;20060;-72
2022/09/12 05:23:29;;;;;;;47.20;26.63;;;;;;;;;;4868490;29;20978;-72
2022/09/12 05:25:56;;;;;;;43.25;26.55;;;15.00;99.90;;;;;;4870866;29;20041;-72
2022/09/12 05:28:23;;;;;;;47.53;27.15;;;;;;;;;;4874481;29;20056;-72
2022/09/12 05:30:59;;;;;;;42.72;24.92;;;;;;;;;;4869977;29;20045;-72
2022/09/12 05:33:25;;;;;;;40.65;24.92;;;;;;;;;;4865434;29;20049;-72
2022/09/12 05:35:51;;;;;;;41.40;25.38;;;16.10;99.90;;;;;;4874863;29;20048;-71
2022/09/12 05:38:18;;;;;;;42.47;26.40;;;;;;;;;;4870249;29;20060;-72
2022/09/12 05:40:44;;;;;;;45.97;27.35;;;;;;;;;;4866868;29;20076;-72
2022/09/12 05:43:11;;;;;;;48.63;26.90;;;;;;;;;;4867673;29;20056;-72
2022/09/12 05:45:37;;;;;;;41.75;24.85;;;;;;;;;;4870308;29;20091;-72
2022/09/12 05:48:04;;;;;;;43.65;26.95;;;;;;;;;;4873252;29;20057;-72
2022/09/12 05:50:30;;;;;;;40.65;24.95;;;;;;;;;;4873518;29;20048;-72
2022/09/12 05:52:59;;;;;;;40.83;26.08;;;15.50;99.90;;;;;;4876070;29;20059;-72
2022/09/12 05:55:25;;;;;;;49.08;27.20;;;;;;;;;;4873834;29;20041;-72
2022/09/12 05:57:51;;;;;;;40.42;25.60;;;;;;;;;;4857005;29;20405;-71
2022/09/12 06:00:19;;;;;;;37.13;22.73;;;;;;;;;;4870992;29;20088;-70
2022/09/12 06:02:50;;;;;;;34.08;20.98;;;;;;;;;;4887899;29;20135;-72
2022/09/12 06:05:17;;;;;;;51.22;29.45;;;;;;;;;;4885656;29;20071;-71
2022/09/12 06:07:45;;;;;;;48.17;27.77;;;14.80;99.90;;;;;;4855959;29;20513;-70
2022/09/12 06:10:12;;;;;;;43.65;25.65;;;;;;;;;;4880653;29;20547;-71
2022/09/12 06:12:38;;;;;;;41.75;25.27;;;;;;;;;;4870023;29;20057;-71
2022/09/12 06:15:04;;;;;;;45.60;26.33;;;14.30;99.90;;;;;;4869047;29;20048;-72
2022/09/12 06:17:31;;;;;;;45.38;26.52;;;;;;;;;;4873996;29;20057;-71
2022/09/12 06:19:57;;;;;;;40.67;25.52;;;;;;;;;;4863879;29;20188;-71
2022/09/12 06:22:23;;;;;;;43.80;26.65;;;;;;;;;;4878889;29;20052;-71
2022/09/12 06:24:49;;;;;;;45.03;26.60;;;;;;;;;;4881196;29;20135;-71
2022/09/12 06:27:15;;;;;;;40.60;25.50;;;;;;;;;;4855817;29;20490;-71
2022/09/12 06:29:41;;;;;;;47.00;27.35;;;;;;;;;;4867769;29;20485;-71
2022/09/12 06:32:10;;;;;;;45.13;26.45;;;;;;;;;;4879137;29;20082;-71
2022/09/12 06:34:36;;;;;;;47.35;27.52;;;;;;;;;;4881246;29;20056;-71
2022/09/12 06:37:02;;;;;;;42.90;25.42;;;;;;;;;;4865772;29;20055;-71
2022/09/12 06:39:30;;;;;;;46.50;26.08;;;;;;;;;;4872296;29;20087;-71
2022/09/12 06:41:56;;;;;;;43.63;26.00;;;;;;;;;;4866259;29;20059;-71
2022/09/12 06:44:23;;;;;;;46.47;25.50;;;;;;;;;;4879061;29;20123;-71
2022/09/12 06:46:49;;;;;;;44.72;25.83;;;;;;;;;;4864450;29;20131;-71
2022/09/12 06:49:16;;;;;;;47.20;25.77;;;;;;;;;;4871780;29;20052;-71
2022/09/12 06:51:42;;;;;;;46.15;27.02;;;14.50;99.90;;;;;;4863942;29;20173;-71
2022/09/12 06:54:11;;;;;;;48.53;28.42;;;15.40;99.90;;;;;;4864029;29;20152;-71
2022/09/12 06:56:37;;;;;;;45.55;25.58;;;;;;;;;;4877103;29;20049;-71
2022/09/12 06:59:03;;;;;;;46.60;27.35;;;;;;;;;;4872686;29;20063;-71
2022/09/12 07:01:31;;;;;;;47.40;27.88;;;15.60;99.90;;;;;;4880828;29;20048;-71
2022/09/12 07:03:59;;;;;;;46.03;26.10;;;15.40;99.90;;;;;;4864293;29;20144;-71
2022/09/12 07:06:30;;;;;;;45.33;27.10;;;15.60;99.90;;;;;;4864193;29;20562;-71
2022/09/12 07:09:03;;;;;;;51.78;28.58;;;;;;;;;;4868607;29;20084;-71
2022/09/12 07:11:34;;;;;;;46.30;27.83;;;15.50;99.90;;;;;;4863274;29;20048;-71
2022/09/12 07:14:02;;;;;;;53.13;27.77;;;15.50;99.90;;;;;;4868002;29;20104;-71
2022/09/12 07:16:28;;;;;;;49.70;27.92;;;;;;;;;;4872039;29;20045;-71
2022/09/12 07:19:00;;;;;;;47.53;26.98;;;15.50;99.90;;;;;;4871672;29;20059;-71
2022/09/12 07:21:26;;;;;;;54.38;28.75;;;;;;;;;;4853436;29;20057;-71
2022/09/12 07:23:56;;;;;;;49.75;28.17;;;;;;;;;;4869821;29;20081;-71
2022/09/12 07:26:23;;;;;;;50.40;28.08;;;15.30;99.90;;;;;;4867226;29;20048;-71
2022/09/12 07:28:54;;;;;;;52.72;29.02;;;14.90;99.90;;;;;;4871912;29;20574;-71
2022/09/12 07:31:22;;;;;;;51.88;29.75;;;;;;;;;;4870157;29;20044;-71
2022/09/12 07:33:49;;;;;;;53.22;29.30;;;;;;;;;;4876869;29;20131;-71
2022/09/12 07:36:17;;;;;;;61.10;32.28;;;16.20;99.90;;;;;;4866943;29;20053;-71
2022/09/12 07:38:45;;;;;;;52.05;29.23;;;;;;;;;;4875971;29;20072;-71
2022/09/12 07:41:11;;;;;;;59.10;31.77;;;;;;;;;;4875131;29;20063;-71
2022/09/12 07:43:37;;;;;;;61.17;31.27;;;;;;;;;;4866120;29;20162;-71
2022/09/12 07:46:03;;;;;;;65.15;35.47;;;;;;;;;;4868067;29;20047;-71
2022/09/12 07:48:29;;;;;;;61.88;31.77;;;;;;;;;;4881920;29;20060;-70
2022/09/12 07:51:00;;;;;;;68.78;34.20;;;16.30;99.90;;;;;;4894488;29;20082;-71
2022/09/12 07:53:31;;;;;;;67.82;33.25;;;16.40;99.90;;;;;;4881870;29;20561;-71
2022/09/12 07:55:57;;;;;;;62.75;32.67;;;;;;;;;;4873668;29;20079;-72
2022/09/12 07:58:24;;;;;;;68.13;34.53;;;;;;;;;;4864957;29;20565;-71
2022/09/12 08:00:50;;;;;;;62.83;32.83;;;;;;;;;;4868569;29;20085;-71
2022/09/12 08:03:16;;;;;;;69.88;36.05;;;;;;;;;;4848904;29;20128;-71
2022/09/12 08:05:42;;;;;;;65.85;34.35;;;;;;;;;;4866542;29;20121;-71
2022/09/12 08:08:08;;;;;;;69.38;36.65;;;;;;;;;;4881519;29;20061;-71
2022/09/12 08:10:35;;;;;;;71.93;35.90;;;16.90;99.90;;;;;;4881845;29;20052;-69
2022/09/12 08:13:02;;;;;;;76.63;36.58;;;;;;;;;;4881516;29;20514;-69
2022/09/12 08:15:30;;;;;;;75.30;36.78;;;;;;;;;;4866208;29;20462;-69
2022/09/12 08:17:56;;;;;;;71.75;36.05;;;;;;;;;;4861522;29;20045;-69
2022/09/12 08:20:21;;;;;;;78.18;39.13;;;17.40;99.90;;;;;;4862814;29;20100;-69
2022/09/12 08:22:48;;;;;;;82.32;40.15;;;17.40;99.90;;;;;;4847757;29;20088;-69
2022/09/12 08:25:14;;;;;;;79.60;40.17;;;18.00;99.90;;;;;;4862795;29;20071;-69
2022/09/12 08:27:41;;;;;;;86.22;40.20;;;16.30;99.90;;;;;;4864514;29;20061;-69
2022/09/12 08:30:08;;;;;;;83.47;40.88;;;;;;;;;;4850722;29;20493;-69
2022/09/12 08:32:35;;;;;;;91.03;42.58;;;;;;;;;;4876772;29;20040;-69
2022/09/12 08:35:01;;;;;;;86.30;41.17;;;;;;;;;;4880098;29;20036;-69
2022/09/12 08:37:30;;;;;;;82.80;41.42;;;17.80;99.90;;;;;;4891361;29;20087;-69
2022/09/12 08:39:56;;;;;;;92.78;42.72;;;;;;;;;;4857714;29;20057;-69
2022/09/12 08:42:53;;;;;;;87.45;42.58;;;18.00;99.90;;;;;;4863567;29;20797;-68
2022/09/12 08:45:30;;;;;;;90.60;41.28;;;17.80;99.90;;;;;;4863344;29;20057;-69
2022/09/12 08:47:57;;;;;;;94.25;44.25;;;;;;;;;;4869110;29;20097;-71
2022/09/12 08:50:23;;;;;;;99.15;45.92;;;;;;;;;;4863618;29;20052;-71
2022/09/12 08:53:08;;;;;;;107.65;47.33;;;17.70;99.90;;;;;;4862603;29;20507;-71
2022/09/12 08:56:11;;;;;;;110.55;48.80;;;17.70;99.90;;;;;;4871019;29;20573;-71
2022/09/12 08:58:42;;;;;;;100.35;47.75;;;17.80;99.90;;;;;;4867218;29;20076;-71
2022/09/12 09:01:16;;;;;;;107.25;48.58;;;18.50;99.90;;;;;;4858298;29;20052;-71
2022/09/12 09:03:43;;;;;;;106.57;49.47;;;;;;;;;;4870298;29;20498;-71
2022/09/12 09:06:14;;;;;;;116.05;50.97;;;;;;;;;;4868657;29;20053;-70
2022/09/12 09:09:18;;;;;;;104.75;47.63;;;18.00;99.90;;;;;;4849771;29;20084;-71
2022/09/12 09:12:07;;;;;;;107.85;49.13;;;18.30;99.90;;;;;;4843245;29;20105;-70
2022/09/12 09:14:52;;;;;;;108.05;48.50;;;18.20;99.90;;;;;;4881493;29;20452;-70
2022/09/12 09:17:26;;;;;;;114.60;49.33;;;18.20;99.90;;;;;;4861322;29;20079;-70
2022/09/12 09:20:05;;;;;;;112.63;50.08;;;18.60;99.90;;;;;;4867174;29;20410;-70
2022/09/12 09:22:48;;;;;;;99.63;44.63;;;18.70;99.90;;;;;;4869040;29;20482;-71
2022/09/12 09:25:24;;;;;;;92.93;41.88;;;18.60;99.90;;;;;;4864179;29;20067;-70
2022/09/12 09:28:06;;;;;;;98.90;44.35;;;18.80;99.90;;;;;;4879281;29;20437;-70
2022/09/12 09:30:34;;;;;;;93.70;43.45;;;19.20;99.90;;;;;;4860256;29;20482;-71
2022/09/12 09:33:03;;;;;;;92.15;43.42;;;19.30;99.90;;;;;;4865753;29;20544;-70
2022/09/12 09:35:37;;;;;;;81.50;40.28;;;19.30;99.90;;;;;;4867550;29;20063;-70
2022/09/12 09:38:37;;;;;;;89.97;39.67;;;18.90;99.90;;;;;;4875739;29;20053;-70
2022/09/12 09:41:36;;;;;;;81.05;37.03;;;19.20;99.90;;;;;;4874998;29;20132;-70
2022/09/12 09:44:02;;;;;;;72.95;34.85;;;;;;;;;;4795069;29;20052;-70
2022/09/12 09:46:28;;;;;;;76.82;36.45;;;;;;;;;;4870906;29;20505;-70
2022/09/12 09:48:58;;;;;;;78.85;35.08;;;19.40;99.90;;;;;;4860756;29;20044;-70
2022/09/12 09:51:32;;;;;;;72.82;34.42;;;19.60;99.90;;;;;;4874561;29;20052;-70
2022/09/12 09:54:22;;;;;;;69.32;32.05;;;19.60;99.90;;;;;;4871136;29;20041;-70
2022/09/12 09:56:49;;;;;;;58.08;27.67;;;;;;;;;;4878596;29;20049;-70
2022/09/12 09:59:19;;;;;;;54.30;28.00;;;20.00;99.90;;;;;;4865111;29;20077;-70
2022/09/12 10:01:53;;;;;;;47.15;24.90;;;19.90;99.90;;;;;;4869863;29;20075;-73
2022/09/12 10:04:28;;;;;;;45.03;23.80;;;20.10;99.90;;;;;;4866075;29;20127;-71
2022/09/12 10:06:57;;;;;;;49.53;24.05;;;20.10;99.90;;;;;;4849703;29;20053;-71
2022/09/12 10:09:29;;;;;;;53.78;27.33;;;20.20;99.90;;;;;;4876242;29;20048;-71
2022/09/12 10:11:56;;;;;;;58.10;26.92;;;20.50;99.90;;;;;;4864986;29;20128;-71
2022/09/12 10:14:39;;;;;;;57.33;26.17;;;21.10;99.90;;;;;;4881832;29;20454;-70
2022/09/12 10:17:30;;;;;;;52.20;26.38;;;21.20;99.90;;;;;;4872724;29;20055;-70
2022/09/12 10:19:57;;;;;;;53.00;26.80;;;20.40;99.80;;;;;;4881538;29;20115;-70
2022/09/12 10:22:25;;;;;;;56.08;27.95;;;20.10;99.90;;;;;;4889533;29;20108;-70
2022/09/12 10:24:53;;;;;;;57.03;27.00;;;20.50;99.70;;;;;;4870288;29;20128;-70
2022/09/12 10:27:23;;;;;;;48.55;23.98;;;19.80;99.90;;;;;;4877233;29;20052;-70
2022/09/12 10:30:14;;;;;;;46.75;24.88;;;20.70;99.40;;;;;;4881646;29;20104;-70
2022/09/12 10:32:43;;;;;;;58.15;26.30;;;21.20;99.20;;;;;;4861795;29;20060;-70
2022/09/12 10:35:27;;;;;;;45.05;22.25;;;20.30;99.90;;;;;;4880388;29;20045;-70
2022/09/12 10:38:01;;;;;;;53.25;23.27;;;21.30;99.90;;;;;;4883404;29;20140;-69
2022/09/12 10:40:31;;;;;;;44.65;21.98;;;21.20;99.90;;;;;;4881939;29;20090;-69
2022/09/12 10:42:58;;;;;;;49.80;21.17;;;21.70;99.90;;;;;;4880250;29;20044;-72
2022/09/12 10:45:37;;;;;;;42.00;20.75;;;20.70;99.90;;;;;;4867764;29;20105;-71
2022/09/12 10:48:29;;;;;;;42.25;21.65;;;21.60;99.90;;;;;;4867687;29;20053;-69
2022/09/12 10:50:58;;;;;;;45.38;22.10;;;21.90;99.90;;;;;;4883017;29;20576;-69
2022/09/12 10:53:43;;;;;;;46.17;21.85;;;22.20;99.90;;;;;;4867351;29;20135;-69
2022/09/12 10:56:13;;;;;;;43.67;20.90;;;21.40;99.90;;;;;;4880759;29;20049;-69
2022/09/12 10:59:04;;;;;;;50.70;20.25;;;21.80;97.00;;;;;;4877438;29;20109;-69
2022/09/12 11:02:00;;;;;;;41.80;20.58;;;22.50;99.90;;;;;;4879429;29;20060;-69
2022/09/12 11:05:18;;;;;;;53.05;21.42;;;21.50;99.90;;;;;;4881634;29;20174;-69
2022/09/12 11:07:54;;;;;;;36.22;17.55;;;22.10;99.90;;;;;;4784465;29;20471;-70
2022/09/12 11:10:24;;;;;;;39.22;19.02;;;21.80;95.30;;;;;;4863989;29;20041;-70
2022/09/12 11:13:12;;;;;;;34.00;18.38;;;21.40;95.20;;;;;;4848600;29;20128;-70
2022/09/12 11:16:03;;;;;;;28.33;15.57;;;22.10;99.90;;;;;;4864197;29;20053;-70
2022/09/12 11:19:06;;;;;;;28.13;15.10;;;21.30;99.90;;;;;;4863855;29;20415;-70
2022/09/12 11:21:54;;;;;;;26.40;14.25;;;22.50;99.90;;;;;;4863711;29;20056;-70
2022/09/12 11:24:40;;;;;;;26.38;14.48;;;21.50;99.90;;;;;;4848206;29;20049;-70
2022/09/12 11:27:43;;;;;;;31.85;16.45;;;22.40;99.90;;;;;;4863456;29;20084;-70
2022/09/12 11:30:15;;;;;;;27.88;14.70;;;21.80;99.40;;;;;;4863363;29;20546;-71
2022/09/12 11:33:13;;;;;;;26.27;14.23;;;22.60;93.80;;;;;;4863568;29;20049;-71
2022/09/12 11:35:50;;;;;;;24.80;14.75;;;23.10;99.10;;;;;;4889318;29;20044;-70
2022/09/12 11:38:43;;;;;;;26.90;14.90;;;22.90;98.90;;;;;;4885472;29;20058;-70
2022/09/12 11:41:19;;;;;;;27.52;13.88;;;23.20;98.60;;;;;;4884954;29;20056;-70
2022/09/12 11:43:53;;;;;;;26.80;15.10;;;22.10;98.70;;;;;;4885322;29;20504;-70
2022/09/12 11:46:35;;;;;;;28.75;15.35;;;23.00;98.80;;;;;;4900928;29;20048;-70
2022/09/12 11:49:12;;;;;;;23.65;14.50;;;21.70;98.50;;;;;;4884918;29;20087;-70
2022/09/12 11:51:59;;;;;;;25.63;13.90;;;22.00;98.50;;;;;;4900964;29;20051;-70
2022/09/12 11:54:37;;;;;;;24.90;12.13;;;22.70;98.70;;;;;;4900535;29;20044;-72
2022/09/12 11:57:24;;;;;;;20.08;11.27;;;23.10;98.80;;;;;;4884686;29;20116;-71
2022/09/12 12:00:08;;;;;;;15.48;10.23;;;22.90;98.50;;;;;;4884676;29;20044;-70
2022/09/12 12:02:47;;;;;;;19.55;10.55;;;22.50;98.10;;;;;;4884925;29;20083;-70
2022/09/12 12:05:29;;;;;;;21.35;11.30;;;22.80;98.20;;;;;;4881359;29;20048;-70
2022/09/12 12:07:59;;;;;;;18.65;9.65;;;22.10;98.20;;;;;;4862910;29;20045;-70
2022/09/12 12:10:25;;;;;;;17.00;11.20;;;22.60;98.00;;;;;;4862958;29;20063;-70
2022/09/12 12:12:53;;;;;;;17.52;10.20;;;23.00;98.10;;;;;;4862814;29;20053;-70
2022/09/12 12:15:21;;;;;;;15.38;9.25;;;22.50;98.10;;;;;;4847774;29;20160;-70
2022/09/12 12:18:04;;;;;;;21.30;10.32;;;23.30;97.90;;;;;;4862906;29;20057;-70
2022/09/12 12:20:30;;;;;;;20.25;11.98;;;22.50;92.90;;;;;;4862702;29;20484;-70
2022/09/12 12:22:56;;;;;;;21.48;11.32;;;23.00;97.50;;;;;;4863006;29;20061;-70
2022/09/12 12:25:36;;;;;;;16.50;10.75;;;22.50;97.40;;;;;;4862675;29;20550;-70
2022/09/12 12:28:04;;;;;;;22.65;13.23;;;23.20;97.10;;;;;;4878385;29;20398;-70
2022/09/12 12:30:29;;;;;;;19.40;11.95;;;23.20;93.10;;;;;;4847594;29;20139;-70
2022/09/12 12:32:59;;;;;;;25.20;14.00;;;23.60;96.80;;;;;;4847222;29;20558;-70
2022/09/12 12:35:36;;;;;;;21.42;12.38;;;23.20;91.10;;;;;;4873200;29;20084;-69
2022/09/12 12:38:23;;;;;;;24.23;12.57;;;23.60;96.60;;;;;;4881189;29;20052;-69
2022/09/12 12:40:49;;;;;;;23.17;14.25;;;23.40;96.50;;;;;;4881327;29;20084;-70
2022/09/12 12:43:35;;;;;;;23.45;14.27;;;23.60;91.90;;;;;;4881505;29;20532;-70
2022/09/12 12:46:04;;;;;;;22.92;13.10;;;23.30;96.50;;;;;;4880735;29;20057;-69
2022/09/12 12:48:34;;;;;;;27.30;13.50;;;22.70;95.80;;;;;;4865650;29;20124;-70
2022/09/12 12:51:22;;;;;;;21.17;13.00;;;24.10;96.20;;;;;;4881351;29;20045;-70
2022/09/12 12:53:50;;;;;;;20.75;13.10;;;23.80;96.20;;;;;;4881182;29;20052;-70
2022/09/12 12:56:39;;;;;;;24.63;12.60;;;24.10;96.00;;;;;;4881002;29;20523;-69
2022/09/12 12:59:18;;;;;;;18.05;11.30;;;23.20;96.00;;;;;;4881263;29;20060;-69
2022/09/12 13:01:47;;;;;;;24.38;11.18;;;23.80;96.10;;;;;;4897718;29;20064;-70
2022/09/12 13:04:20;;;;;;;20.92;11.10;;;23.80;91.80;;;;;;4873676;29;20056;-69
2022/09/12 13:07:04;;;;;;;18.38;10.65;;;24.30;92.20;;;;;;4869938;29;20052;-70
2022/09/12 13:09:36;;;;;;;17.40;10.30;;;23.80;96.00;;;;;;4867484;29;20049;-70
2022/09/12 13:12:07;;;;;;;19.67;9.23;;;24.10;95.80;;;;;;4882889;29;20485;-70
2022/09/12 13:14:42;;;;;;;18.13;9.00;;;23.50;95.30;;;;;;4882633;29;20133;-70
2022/09/12 13:17:18;;;;;;;17.30;9.60;;;24.20;95.20;;;;;;4865779;29;20056;-70
2022/09/12 13:19:45;;;;;;;18.05;10.48;;;24.30;95.30;;;;;;4850378;29;20045;-70
2022/09/12 13:22:13;;;;;;;18.00;10.60;;;;;;;;;;4864218;29;20491;-70
2022/09/12 13:24:47;;;;;;;21.67;12.07;;;24.20;88.70;;;;;;4864582;29;20045;-70
2022/09/12 13:27:31;;;;;;;16.50;10.27;;;24.20;88.40;;;;;;4849778;29;20209;-70
2022/09/12 13:30:12;;;;;;;18.27;10.65;;;24.90;94.80;;;;;;4865165;29;20049;-70
2022/09/12 13:32:38;;;;;;;19.05;10.88;;;24.40;94.70;;;;;;4865918;29;20084;-71
2022/09/12 13:35:19;;;;;;;18.50;10.70;;;24.20;90.00;;;;;;4881756;29;20409;-71